createdAt,value
2022-10-24T00:01:45.653Z,99265.97
2022-10-24T00:04:14.045Z,99265.19
2022-10-24T00:06:43.866Z,99269.69
2022-10-24T00:09:12.251Z,99270.03
2022-10-24T00:11:43.851Z,99267.56
2022-10-24T00:14:12.470Z,99265.28
2022-10-24T00:16:40.846Z,99267.41
2022-10-24T00:19:09.213Z,99256.84
2022-10-24T00:21:37.572Z,99262.06
2022-10-24T00:24:08.226Z,99261.56
2022-10-24T00:26:37.075Z,99250.75
2022-10-24T00:29:06.157Z,99248.28
2022-10-24T00:31:34.737Z,99242.75
2022-10-24T00:34:03.327Z,99244.41
2022-10-24T00:36:32.200Z,99241.28
2022-10-24T00:39:00.630Z,99251.78
2022-10-24T00:41:34.869Z,99244.56
2022-10-24T00:44:20.517Z,99239.34
2022-10-24T00:46:53.988Z,99239.00
2022-10-24T00:49:29.977Z,99232.34
2022-10-24T00:52:08.032Z,99235.13
2022-10-24T00:54:39.200Z,99236.44
2022-10-24T00:57:17.324Z,99233.13
2022-10-24T00:59:50.546Z,99233.66
2022-10-24T01:02:19.063Z,99225.84
2022-10-24T01:04:48.378Z,99219.78
2022-10-24T01:07:30.692Z,99211.22
2022-10-24T01:10:22.328Z,99207.94
2022-10-24T01:13:03.705Z,99212.69
2022-10-24T01:15:41.438Z,99215.78
2022-10-24T01:18:18.096Z,99213.50
2022-10-24T01:21:31.469Z,99219.19
2022-10-24T01:24:31.265Z,99228.03
2022-10-24T01:27:39.325Z,99237.00
2022-10-24T01:30:11.322Z,99232.75
2022-10-24T01:32:49.501Z,99236.34
2022-10-24T01:35:36.393Z,99233.28
2022-10-24T01:38:16.210Z,99237.41
2022-10-24T01:40:53.186Z,99240.66
2022-10-24T01:43:27.852Z,99233.47
2022-10-24T01:46:04.432Z,99238.84
2022-10-24T01:48:39.558Z,99255.19
2022-10-24T01:51:11.071Z,99256.63
2022-10-24T01:53:40.855Z,99256.97
2022-10-24T01:56:09.550Z,99256.75
2022-10-24T01:58:37.942Z,99262.63
2022-10-24T02:01:12.352Z,99267.34
2022-10-24T02:03:47.814Z,99265.41
2022-10-24T02:06:21.966Z,99275.06
2022-10-24T02:08:55.033Z,99293.88
2022-10-24T02:11:23.513Z,99310.25
2022-10-24T02:13:57.889Z,99348.66
2022-10-24T02:16:27.687Z,99382.91
2022-10-24T02:18:58.119Z,99373.53
2022-10-24T02:21:32.903Z,99367.25
2022-10-24T02:24:07.748Z,99367.88
2022-10-24T02:26:44.083Z,99371.81
2022-10-24T02:29:19.685Z,99376.81
2022-10-24T02:31:54.858Z,99402.34
2022-10-24T02:34:25.250Z,99390.91
2022-10-24T02:36:56.249Z,99348.09
2022-10-24T02:39:26.698Z,99326.41
2022-10-24T02:41:57.334Z,99330.00
2022-10-24T02:44:28.149Z,99348.00
2022-10-24T02:47:02.205Z,99360.56
2022-10-24T02:49:30.861Z,99375.28
2022-10-24T02:52:00.598Z,99376.09
2022-10-24T02:54:29.071Z,99390.00
2022-10-24T02:57:02.407Z,99390.22
2022-10-24T02:59:31.336Z,99391.53
2022-10-24T03:02:01.863Z,99399.88
2022-10-24T03:04:30.246Z,99396.38
2022-10-24T03:06:58.614Z,99397.91
2022-10-24T03:09:27.079Z,99405.00
2022-10-24T03:11:55.440Z,99394.41
2022-10-24T03:14:23.761Z,99402.75
2022-10-24T03:16:52.173Z,99409.94
2022-10-24T03:19:21.983Z,99412.59
2022-10-24T03:21:51.518Z,99416.91
2022-10-24T03:24:27.010Z,99426.16
2022-10-24T03:27:05.848Z,99420.38
2022-10-24T03:29:34.269Z,99411.03
2022-10-24T03:32:02.750Z,99412.78
2022-10-24T03:34:32.548Z,99404.00
2022-10-24T03:37:01.037Z,99406.84
2022-10-24T03:39:29.411Z,99401.69
2022-10-24T03:41:57.751Z,99411.44
2022-10-24T03:44:26.159Z,99407.31
2022-10-24T03:46:54.513Z,99409.25
2022-10-24T03:49:22.930Z,99413.19
2022-10-24T03:51:52.657Z,99413.97
2022-10-24T03:54:20.982Z,99413.97
2022-10-24T03:56:50.088Z,99419.53
2022-10-24T03:59:18.508Z,99408.75
2022-10-24T04:01:46.884Z,99399.59
2022-10-24T04:04:15.292Z,99397.13
2022-10-24T04:06:43.644Z,99388.81
2022-10-24T04:09:13.389Z,99403.78
2022-10-24T04:11:41.847Z,99397.44
2022-10-24T04:14:10.596Z,99389.41
2022-10-24T04:16:38.973Z,99395.28
2022-10-24T04:19:07.715Z,99391.66
2022-10-24T04:21:36.066Z,99393.63
2022-10-24T04:24:04.786Z,99390.31
2022-10-24T04:26:34.505Z,99379.56
2022-10-24T04:29:02.978Z,99382.31
2022-10-24T04:31:31.425Z,99382.91
2022-10-24T04:33:59.801Z,99378.78
2022-10-24T04:36:28.222Z,99383.81
2022-10-24T04:38:56.631Z,99387.75
2022-10-24T04:41:25.057Z,99378.06
2022-10-24T04:43:55.506Z,99383.91
2022-10-24T04:46:23.987Z,99386.97
2022-10-24T04:48:53.607Z,99385.31
2022-10-24T04:51:22.701Z,99375.06
2022-10-24T04:53:51.498Z,99377.31
2022-10-24T04:56:20.143Z,99371.78
2022-10-24T04:58:48.603Z,99376.50
2022-10-24T05:01:18.630Z,99370.94
2022-10-24T05:03:47.149Z,99389.25
2022-10-24T05:06:15.560Z,99386.47
2022-10-24T05:08:43.949Z,99389.25
2022-10-24T05:11:12.500Z,99392.00
2022-10-24T05:13:41.320Z,99390.88
2022-10-24T05:16:09.717Z,99386.66
2022-10-24T05:18:39.439Z,99388.34
2022-10-24T05:21:08.235Z,99382.19
2022-10-24T05:23:36.623Z,99381.06
2022-10-24T05:26:05.211Z,99391.84
2022-10-24T05:28:34.563Z,99391.53
2022-10-24T05:31:03.168Z,99390.41
2022-10-24T05:33:31.557Z,99390.94
2022-10-24T05:36:01.352Z,99390.63
2022-10-24T05:38:29.720Z,99388.69
2022-10-24T05:40:58.074Z,99389.50
2022-10-24T05:43:26.454Z,99395.03
2022-10-24T05:45:54.856Z,99404.19
2022-10-24T05:48:23.301Z,99402.25
2022-10-24T05:50:51.642Z,99398.66
2022-10-24T05:53:21.371Z,99403.06
2022-10-24T05:55:49.709Z,99398.88
2022-10-24T05:58:21.183Z,99404.09
2022-10-24T06:00:53.778Z,99406.56
2022-10-24T06:03:22.972Z,99405.97
2022-10-24T06:05:51.441Z,99406.22
2022-10-24T06:08:21.212Z,99412.28
2022-10-24T06:10:50.178Z,99411.34
2022-10-24T06:13:19.418Z,99426.78
2022-10-24T06:15:47.909Z,99421.47
2022-10-24T06:18:16.343Z,99424.97
2022-10-24T06:20:44.728Z,99423.25
2022-10-24T06:23:13.073Z,99426.56
2022-10-24T06:25:43.770Z,99426.56
2022-10-24T06:28:12.417Z,99423.97
2022-10-24T06:30:41.578Z,99426.69
2022-10-24T06:33:09.928Z,99432.94
2022-10-24T06:35:38.403Z,99428.44
2022-10-24T06:38:06.898Z,99433.38
2022-10-24T06:40:35.298Z,99447.47
2022-10-24T06:43:05.257Z,99448.50
2022-10-24T06:45:33.770Z,99452.00
2022-10-24T06:48:02.172Z,99442.97
2022-10-24T06:50:30.667Z,99439.16
2022-10-24T06:52:59.012Z,99437.00
2022-10-24T06:55:27.395Z,99449.56
2022-10-24T06:57:55.761Z,99465.13
2022-10-24T07:00:25.759Z,99479.00
2022-10-24T07:02:54.359Z,99471.19
2022-10-24T07:05:23.079Z,99471.94
2022-10-24T07:07:51.502Z,99470.47
2022-10-24T07:10:20.336Z,99456.00
2022-10-24T07:12:48.816Z,99461.66
2022-10-24T07:15:17.646Z,99469.91
2022-10-24T07:17:47.409Z,99458.78
2022-10-24T07:20:16.463Z,99464.16
2022-10-24T07:22:45.788Z,99465.41
2022-10-24T07:25:14.474Z,99459.44
2022-10-24T07:27:43.020Z,99461.00
2022-10-24T07:30:18.744Z,99454.88
2022-10-24T07:32:48.857Z,99452.50
2022-10-24T07:35:17.676Z,99447.88
2022-10-24T07:37:46.372Z,99451.81
2022-10-24T07:40:15.148Z,99467.31
2022-10-24T07:42:43.698Z,99466.72
2022-10-24T07:45:13.435Z,99467.72
2022-10-24T07:47:42.072Z,99459.59
2022-10-24T07:50:12.437Z,99461.44
2022-10-24T07:52:40.822Z,99466.56
2022-10-24T07:55:10.166Z,99464.28
2022-10-24T07:57:38.703Z,99477.38
2022-10-24T08:00:09.221Z,99465.22
2022-10-24T08:02:37.758Z,99462.78
2022-10-24T08:05:07.555Z,99455.56
2022-10-24T08:07:38.781Z,99450.81
2022-10-24T08:10:10.486Z,99441.66
2022-10-24T08:12:38.926Z,99436.59
2022-10-24T08:15:08.472Z,99433.53
2022-10-24T08:17:37.662Z,99436.31
2022-10-24T08:20:08.314Z,99441.66
2022-10-24T08:22:38.127Z,99440.81
2022-10-24T08:25:09.791Z,99439.69
2022-10-24T08:27:38.447Z,99445.44
2022-10-24T08:30:09.078Z,99438.13
2022-10-24T08:32:38.445Z,99443.94
2022-10-24T08:35:08.102Z,99433.94
2022-10-24T08:37:39.419Z,99425.03
2022-10-24T08:40:13.158Z,99425.41
2022-10-24T08:42:41.575Z,99426.91
2022-10-24T08:45:18.269Z,99436.97
2022-10-24T08:47:57.006Z,99423.16
2022-10-24T08:50:29.273Z,99418.81
2022-10-24T08:53:03.872Z,99431.97
2022-10-24T08:55:54.914Z,99428.53
2022-10-24T08:58:28.665Z,99424.66
2022-10-24T09:01:01.468Z,99424.53
2022-10-24T09:03:56.051Z,99415.56
2022-10-24T09:06:27.477Z,99407.34
2022-10-24T09:09:01.030Z,99406.22
2022-10-24T09:11:41.953Z,99409.06
2022-10-24T09:14:16.136Z,99401.53
2022-10-24T09:16:47.254Z,99394.00
2022-10-24T09:19:20.972Z,99398.44
2022-10-24T09:21:50.645Z,99399.59
2022-10-24T09:24:33.278Z,99398.06
2022-10-24T09:27:04.991Z,99405.94
2022-10-24T09:29:35.050Z,99398.00
2022-10-24T09:32:04.827Z,99398.59
2022-10-24T09:34:33.229Z,99413.03
2022-10-24T09:37:01.721Z,99408.91
2022-10-24T09:39:35.710Z,99410.06
2022-10-24T09:42:05.522Z,99400.69
2022-10-24T09:44:38.541Z,99402.78
2022-10-24T09:47:22.880Z,99402.13
2022-10-24T09:49:51.341Z,99410.97
2022-10-24T09:52:23.991Z,99401.28
2022-10-24T09:55:17.733Z,99397.53
2022-10-24T09:57:46.562Z,99400.47
2022-10-24T10:00:26.677Z,99399.16
2022-10-24T10:03:02.111Z,99395.38
2022-10-24T10:05:45.769Z,99389.44
2022-10-24T10:08:21.937Z,99397.31
2022-10-24T10:11:05.811Z,99387.25
2022-10-24T10:13:45.734Z,99384.41
2022-10-24T10:16:25.121Z,99371.53
2022-10-24T10:19:03.259Z,99368.69
2022-10-24T10:21:56.816Z,99369.97
2022-10-24T10:24:29.118Z,99373.66
2022-10-24T10:26:59.052Z,99368.59
2022-10-24T10:29:27.601Z,99378.25
2022-10-24T10:32:07.378Z,99379.69
2022-10-24T10:34:41.275Z,99373.34
2022-10-24T10:37:30.582Z,99360.44
2022-10-24T10:40:17.258Z,99356.63
2022-10-24T10:43:00.513Z,99353.41
2022-10-24T10:45:40.423Z,99360.72
2022-10-24T10:48:41.621Z,99366.47
2022-10-24T10:51:22.925Z,99365.19
2022-10-24T10:53:59.300Z,99366.47
2022-10-24T10:56:35.996Z,99359.69
2022-10-24T10:59:36.018Z,99351.16
2022-10-24T11:02:25.223Z,99343.91
2022-10-24T11:05:04.112Z,99337.84
2022-10-24T11:07:39.189Z,99338.53
2022-10-24T11:10:12.303Z,99349.19
2022-10-24T11:12:43.934Z,99341.59
2022-10-24T11:15:22.717Z,99328.03
2022-10-24T11:17:58.066Z,99330.94
2022-10-24T11:20:32.332Z,99326.41
2022-10-24T11:23:08.426Z,99319.84
2022-10-24T11:25:42.357Z,99319.00
2022-10-24T11:28:19.736Z,99314.31
2022-10-24T11:30:56.788Z,99306.56
2022-10-24T11:33:30.543Z,99309.84
2022-10-24T11:36:15.671Z,99290.03
2022-10-24T11:38:51.460Z,99283.94
2022-10-24T11:41:50.752Z,99280.13
2022-10-24T11:44:47.012Z,99285.25
2022-10-24T11:47:53.057Z,99274.16
2022-10-24T11:50:29.688Z,99282.72
2022-10-24T11:53:05.790Z,99269.78
2022-10-24T11:55:39.816Z,99263.75
2022-10-24T11:58:17.029Z,99262.53
2022-10-24T12:01:20.236Z,99256.56
2022-10-24T12:04:40.665Z,99257.09
2022-10-24T12:08:02.265Z,99245.66
2022-10-24T12:10:53.385Z,99244.97
2022-10-24T12:13:42.104Z,99237.25
2022-10-24T12:16:24.023Z,99232.28
2022-10-24T12:18:59.939Z,99230.81
2022-10-24T12:21:36.245Z,99218.00
2022-10-24T12:24:06.572Z,99209.25
2022-10-24T12:26:36.793Z,99205.81
2022-10-24T12:29:08.274Z,99210.84
2022-10-24T12:31:38.935Z,99203.06
2022-10-24T12:34:49.309Z,99203.38
2022-10-24T12:37:37.644Z,99196.94
2022-10-24T12:40:55.720Z,99197.75
2022-10-24T12:43:36.136Z,99192.22
2022-10-24T12:46:55.939Z,99192.66
2022-10-24T12:49:32.065Z,99189.25
2022-10-24T12:53:02.660Z,99186.56
2022-10-24T12:55:48.566Z,99188.88
2022-10-24T12:58:25.904Z,99191.63
2022-10-24T13:01:00.091Z,99184.69
2022-10-24T13:03:54.857Z,99182.09
2022-10-24T13:06:31.770Z,99179.94
2022-10-24T13:09:27.470Z,99180.03
2022-10-24T13:12:20.237Z,99176.25
2022-10-24T13:15:04.394Z,99175.59
2022-10-24T13:17:43.866Z,99176.09
2022-10-24T13:20:23.447Z,99182.47
2022-10-24T13:22:52.555Z,99178.53
2022-10-24T13:25:36.199Z,99184.09
2022-10-24T13:28:39.207Z,99169.88
2022-10-24T13:31:52.033Z,99175.03
2022-10-24T13:34:38.189Z,99171.81
2022-10-24T13:37:24.007Z,99170.94
2022-10-24T13:39:57.282Z,99163.69
2022-10-24T13:42:39.068Z,99170.56
2022-10-24T13:45:26.409Z,99166.47
2022-10-24T13:48:02.408Z,99169.03
2022-10-24T13:50:34.968Z,99166.75
2022-10-24T13:53:14.276Z,99162.13
2022-10-24T13:55:47.981Z,99164.25
2022-10-24T13:58:22.105Z,99156.75
2022-10-24T14:00:58.982Z,99157.19
2022-10-24T14:03:31.714Z,99154.03
2022-10-24T14:06:03.566Z,99156.81
2022-10-24T14:08:35.561Z,99156.31
2022-10-24T14:11:07.757Z,99160.34
2022-10-24T14:13:44.257Z,99160.78
2022-10-24T14:16:13.020Z,99169.66
2022-10-24T14:18:41.848Z,99178.09
2022-10-24T14:21:20.679Z,99178.88
2022-10-24T14:23:57.560Z,99182.50
2022-10-24T14:26:26.987Z,99179.03
2022-10-24T14:29:01.095Z,99177.41
2022-10-24T14:31:34.898Z,99180.75
2022-10-24T14:34:09.657Z,99185.81
2022-10-24T14:36:40.109Z,99183.47
2022-10-24T14:39:08.730Z,99188.50
2022-10-24T14:41:42.014Z,99191.75
2022-10-24T14:44:16.939Z,99191.16
2022-10-24T14:46:47.816Z,99193.84
2022-10-24T14:49:30.763Z,99194.44
2022-10-24T14:52:02.979Z,99196.75
2022-10-24T14:54:34.703Z,99187.75
2022-10-24T14:57:09.206Z,99182.84
2022-10-24T14:59:45.241Z,99184.72
2022-10-24T15:02:25.013Z,99186.94
2022-10-24T15:04:54.704Z,99180.50
2022-10-24T15:07:32.554Z,99183.16
2022-10-24T15:10:20.544Z,99185.16
2022-10-24T15:12:59.643Z,99180.56
2022-10-24T15:15:34.396Z,99182.44
2022-10-24T15:18:10.975Z,99180.66
2022-10-24T15:20:41.754Z,99183.34
2022-10-24T15:23:27.507Z,99180.31
2022-10-24T15:26:08.881Z,99169.34
2022-10-24T15:28:47.341Z,99171.50
2022-10-24T15:31:20.017Z,99171.03
2022-10-24T15:33:49.479Z,99159.75
2022-10-24T15:36:23.608Z,99165.56
2022-10-24T15:38:56.787Z,99157.84
2022-10-24T15:41:25.423Z,99162.13
2022-10-24T15:43:53.890Z,99167.25
2022-10-24T15:46:24.607Z,99173.22
2022-10-24T15:48:53.267Z,99174.34
2022-10-24T15:51:24.430Z,99176.22
2022-10-24T15:53:53.867Z,99167.34
2022-10-24T15:56:24.350Z,99172.81
2022-10-24T15:58:54.900Z,99185.16
2022-10-24T16:01:29.888Z,99187.78
2022-10-24T16:03:59.272Z,99200.59
2022-10-24T16:06:28.800Z,99203.75
2022-10-24T16:08:58.315Z,99211.97
2022-10-24T16:11:27.694Z,99224.81
2022-10-24T16:13:57.082Z,99226.78
2022-10-24T16:16:27.368Z,99226.78
2022-10-24T16:18:56.022Z,99229.09
2022-10-24T16:21:24.930Z,99244.56
2022-10-24T16:23:55.085Z,99247.25
2022-10-24T16:26:23.867Z,99246.75
2022-10-24T16:28:52.633Z,99255.47
2022-10-24T16:31:23.537Z,99245.78
2022-10-24T16:33:54.435Z,99240.56
2022-10-24T16:36:24.855Z,99248.59
2022-10-24T16:38:54.568Z,99249.41
2022-10-24T16:41:25.644Z,99248.59
2022-10-24T16:43:57.055Z,99243.00
2022-10-24T16:46:27.161Z,99247.09
2022-10-24T16:48:57.415Z,99249.06
2022-10-24T16:51:32.411Z,99255.00
2022-10-24T16:54:02.641Z,99257.78
2022-10-24T16:56:32.094Z,99259.75
2022-10-24T16:59:01.122Z,99262.44
2022-10-24T17:01:30.349Z,99257.88
2022-10-24T17:04:01.372Z,99268.88
2022-10-24T17:06:32.115Z,99269.06
2022-10-24T17:09:02.490Z,99272.88
2022-10-24T17:11:44.846Z,99268.66
2022-10-24T17:14:17.011Z,99270.81
2022-10-24T17:16:47.373Z,99277.09
2022-10-24T17:19:18.256Z,99279.72
2022-10-24T17:21:52.409Z,99280.41
2022-10-24T17:24:28.761Z,99279.41
2022-10-24T17:26:58.245Z,99278.47
2022-10-24T17:29:31.980Z,99287.81
2022-10-24T17:32:03.480Z,99282.75
2022-10-24T17:34:35.368Z,99290.00
2022-10-24T17:37:12.685Z,99292.00
2022-10-24T17:39:50.861Z,99289.41
2022-10-24T17:42:24.754Z,99286.97
2022-10-24T17:44:55.800Z,99306.03
2022-10-24T17:47:26.372Z,99311.63
2022-10-24T17:49:56.955Z,99311.63
2022-10-24T17:52:28.912Z,99315.72
2022-10-24T17:54:59.616Z,99321.28
2022-10-24T17:57:30.525Z,99326.84
2022-10-24T18:00:01.455Z,99324.06
2022-10-24T18:02:31.839Z,99331.94
2022-10-24T18:05:03.439Z,99324.84
2022-10-24T18:07:38.454Z,99324.16
2022-10-24T18:10:10.235Z,99326.06
2022-10-24T18:12:42.479Z,99335.66
2022-10-24T18:15:17.265Z,99343.00
2022-10-24T18:17:47.994Z,99344.94
2022-10-24T18:20:21.569Z,99347.66
2022-10-24T18:23:01.582Z,99340.59
2022-10-24T18:25:32.177Z,99334.66
2022-10-24T18:28:05.559Z,99342.00
2022-10-24T18:30:38.132Z,99337.41
2022-10-24T18:33:08.164Z,99337.84
2022-10-24T18:35:42.939Z,99333.34
2022-10-24T18:38:13.436Z,99333.78
2022-10-24T18:40:46.174Z,99337.00
2022-10-24T18:43:17.179Z,99329.94
2022-10-24T18:45:50.008Z,99328.09
2022-10-24T18:48:20.973Z,99328.72
2022-10-24T18:50:54.502Z,99331.66
2022-10-24T18:53:27.752Z,99329.47
2022-10-24T18:55:58.206Z,99329.47
2022-10-24T18:58:30.475Z,99334.53
2022-10-24T19:01:02.520Z,99327.00
2022-10-24T19:03:37.416Z,99326.19
2022-10-24T19:06:23.604Z,99320.66
2022-10-24T19:08:58.501Z,99314.44
2022-10-24T19:11:29.105Z,99315.25
2022-10-24T19:13:59.027Z,99306.91
2022-10-24T19:16:32.381Z,99307.75
2022-10-24T19:19:05.105Z,99313.81
2022-10-24T19:21:36.151Z,99319.03
2022-10-24T19:24:06.083Z,99310.09
2022-10-24T19:26:35.881Z,99315.03
2022-10-24T19:29:06.099Z,99314.69
2022-10-24T19:31:35.885Z,99312.41
2022-10-24T19:34:07.309Z,99313.94
2022-10-24T19:36:39.357Z,99308.06
2022-10-24T19:39:09.923Z,99306.59
2022-10-24T19:41:39.712Z,99291.53
2022-10-24T19:44:11.386Z,99284.03
2022-10-24T19:46:43.687Z,99279.78
2022-10-24T19:49:13.666Z,99289.78
2022-10-24T19:51:52.760Z,99283.91
2022-10-24T19:54:23.083Z,99274.09
2022-10-24T19:56:54.546Z,99269.38
2022-10-24T19:59:25.964Z,99258.72
2022-10-24T20:01:55.499Z,99251.22
2022-10-24T20:04:26.355Z,99254.78
2022-10-24T20:06:57.664Z,99256.44
2022-10-24T20:09:27.110Z,99252.84
2022-10-24T20:11:56.582Z,99275.44
2022-10-24T20:14:26.296Z,99289.13
2022-10-24T20:16:56.175Z,99281.75
2022-10-24T20:19:25.842Z,99279.91
2022-10-24T20:21:57.856Z,99284.16
2022-10-24T20:24:30.769Z,99303.44
2022-10-24T20:26:59.534Z,99299.84
2022-10-24T20:29:28.740Z,99306.56
2022-10-24T20:31:58.061Z,99299.34
2022-10-24T20:34:26.861Z,99297.69
2022-10-24T20:36:58.280Z,99299.66
2022-10-24T20:39:27.998Z,99307.19
2022-10-24T20:41:58.844Z,99311.09
2022-10-24T20:44:28.081Z,99310.59
2022-10-24T20:46:59.179Z,99302.06
2022-10-24T20:49:27.673Z,99307.41
2022-10-24T20:51:58.178Z,99302.81
2022-10-24T20:54:27.494Z,99303.75
2022-10-24T20:56:55.983Z,99296.06
2022-10-24T20:59:25.020Z,99289.19
2022-10-24T21:01:53.762Z,99300.91
2022-10-24T21:04:22.198Z,99309.25
2022-10-24T21:06:51.895Z,99304.81
2022-10-24T21:09:24.846Z,99299.09
2022-10-24T21:11:56.958Z,99305.25
2022-10-24T21:14:27.078Z,99290.69
2022-10-24T21:16:55.559Z,99295.22
2022-10-24T21:19:24.030Z,99294.19
2022-10-24T21:21:52.387Z,99294.03
2022-10-24T21:24:22.324Z,99297.41
2022-10-24T21:26:50.670Z,99296.03
2022-10-24T21:29:32.708Z,99300.28
2022-10-24T21:32:02.098Z,99297.81
2022-10-24T21:34:33.430Z,99302.88
2022-10-24T21:37:04.008Z,99300.09
2022-10-24T21:39:33.794Z,99297.31
2022-10-24T21:42:02.267Z,99302.53
2022-10-24T21:44:30.647Z,99309.75
2022-10-24T21:46:59.102Z,99310.56
2022-10-24T21:49:27.468Z,99307.47
2022-10-24T21:51:55.854Z,99307.47
2022-10-24T21:54:26.395Z,99307.47
2022-10-24T21:56:56.148Z,99315.50
2022-10-24T21:59:24.938Z,99310.25
2022-10-24T22:01:53.956Z,99325.53
2022-10-24T22:04:22.603Z,99336.31
2022-10-24T22:06:50.972Z,99330.44
2022-10-24T22:09:23.663Z,99330.44
2022-10-24T22:11:52.143Z,99331.75
2022-10-24T22:14:21.952Z,99319.03
2022-10-24T22:16:50.483Z,99315.09
2022-10-24T22:19:18.856Z,99300.69
2022-10-24T22:21:49.248Z,99293.50
2022-10-24T22:24:20.158Z,99289.91
2022-10-24T22:26:49.527Z,99293.28
2022-10-24T22:29:21.992Z,99295.03
2022-10-24T22:31:52.037Z,99300.38
2022-10-24T22:34:24.439Z,99302.97
2022-10-24T22:37:08.947Z,99307.53
2022-10-24T22:39:38.170Z,99325.63
2022-10-24T22:42:08.719Z,99327.06
2022-10-24T22:44:39.575Z,99337.66
2022-10-24T22:47:36.245Z,99338.59
2022-10-24T22:50:21.530Z,99348.03
2022-10-24T22:52:51.059Z,99355.88
2022-10-24T22:55:32.457Z,99363.47
2022-10-24T22:58:01.846Z,99364.91
2022-10-24T23:00:32.762Z,99354.72
2022-10-24T23:03:13.714Z,99359.78
2022-10-24T23:08:32.838Z,99363.69
2022-10-24T23:11:02.186Z,99376.44
2022-10-24T23:13:31.458Z,99375.63
2022-10-24T23:16:09.774Z,99380.63
2022-10-24T23:18:38.909Z,99373.13
2022-10-24T23:21:20.053Z,99380.13
2022-10-24T23:23:49.335Z,99387.03
2022-10-24T23:26:32.509Z,99396.78
2022-10-24T23:29:09.992Z,99403.16
2022-10-24T23:31:40.819Z,99402.66
2022-10-24T23:34:11.277Z,99398.75
2022-10-24T23:36:44.257Z,99394.00
2022-10-24T23:39:15.270Z,99387.66
2022-10-24T23:41:44.519Z,99394.00
2022-10-24T23:44:13.585Z,99403.47
2022-10-24T23:46:49.346Z,99404.59
2022-10-24T23:49:28.168Z,99404.09
2022-10-24T23:52:04.993Z,99398.53
2022-10-24T23:54:35.046Z,99393.81
2022-10-24T23:57:13.004Z,99392.16
2022-10-24T23:59:41.368Z,99393.31
